Time;durP1;ratioP1;P1;durP2;ratioP2;P2;SDS_P1;SDS_P2;PMS_P1;PMS_P2;Temp;Humidity;BMP_temperature;BMP_pressure;BME280_temperature;BME280_humidity;BME280_pressure;Samples;Min_cycle;Max_cycle;Signal;HPM_P1;HPM_P2
2023/01/24 00:01:08;;;;;;;10.85;4.03;;;;;;;-146.73;100.00;56421.06;6183559;23;20080;-95
2023/01/24 00:03:33;;;;;;;10.55;3.88;;;;;;;-146.73;100.00;56421.06;6183418;23;20090;-94
2023/01/24 00:05:59;;;;;;;9.52;3.88;;;;;;;-146.73;100.00;56421.06;6183731;23;19997;-94
2023/01/24 00:08:25;;;;;;;16.38;4.10;;;;;;;-146.73;100.00;56421.06;6183340;23;20011;-94
2023/01/24 00:11:06;;;;;;;12.13;3.72;;;;;;;-146.73;100.00;56421.06;6184015;23;20033;-95
2023/01/24 00:13:49;;;;;;;10.95;3.70;;;;;;;-146.73;100.00;56421.06;6182996;23;20017;-96
2023/01/24 00:16:24;;;;;;;11.77;4.00;;;;;;;-146.73;100.00;56421.06;6183043;23;20012;-95
2023/01/24 00:18:51;;;;;;;11.32;3.55;;;;;;;-146.73;100.00;56421.06;6181893;23;20028;-94
2023/01/24 00:21:20;;;;;;;12.30;4.15;;;;;;;-146.73;100.00;56421.06;6182288;23;20017;-95
2023/01/24 00:23:54;;;;;;;14.68;4.07;;;;;;;-146.73;100.00;56421.06;6182196;23;20017;-95
2023/01/24 00:26:24;;;;;;;10.55;4.22;;;;;;;-146.73;100.00;56421.06;6182717;23;20009;-94
2023/01/24 00:28:57;;;;;;;10.88;3.85;;;;;;;-146.73;100.00;56421.06;6181550;23;20465;-95
2023/01/24 00:31:23;;;;;;;9.32;3.20;;;;;;;-146.73;100.00;56421.06;6182795;23;20036;-95
2023/01/24 00:33:49;;;;;;;8.70;3.63;;;;;;;-146.73;100.00;56421.06;6183287;23;20004;-95
2023/01/24 00:36:15;;;;;;;10.65;3.58;;;;;;;-146.73;100.00;56421.06;6182612;23;20098;-94
2023/01/24 00:38:44;;;;;;;10.63;4.20;;;;;;;-146.73;100.00;56421.06;6181900;23;20009;-95
2023/01/24 00:41:10;;;;;;;9.10;3.67;;;;;;;-146.73;100.00;56421.06;6181855;23;20010;-95
2023/01/24 00:43:36;;;;;;;13.30;3.85;;;;;;;-146.73;100.00;56421.06;6182745;23;20013;-95
2023/01/24 00:46:05;;;;;;;13.63;4.40;;;;;;;-146.73;100.00;56421.06;6182807;23;20382;-95
2023/01/24 00:48:37;;;;;;;10.73;3.30;;;;;;;-146.73;100.00;56421.06;6182318;23;20040;-95
2023/01/24 00:51:16;;;;;;;10.57;3.50;;;;;;;-146.73;100.00;56421.06;6181965;23;20017;-95
2023/01/24 00:53:42;;;;;;;9.93;3.00;;;;;;;-146.73;100.00;56421.06;6183188;23;20001;-95
2023/01/24 00:56:10;;;;;;;8.57;3.10;;;;;;;-146.73;100.00;56421.06;6182977;23;20092;-95
2023/01/24 00:58:41;;;;;;;12.10;4.20;;;;;;;-146.73;100.00;56421.06;6183165;23;20113;-94
2023/01/24 01:01:13;;;;;;;10.07;3.00;;;;;;;-146.73;100.00;56421.06;6183345;23;20005;-95
2023/01/24 01:03:41;;;;;;;9.20;3.45;;;;;;;-146.73;100.00;56421.06;6183239;23;20021;-95
2023/01/24 01:06:14;;;;;;;8.40;2.85;;;;;;;-146.73;100.00;56421.06;6184342;23;19997;-94
2023/01/24 01:08:41;;;;;;;9.50;3.15;;;;;;;-146.73;100.00;56421.06;6182960;23;20523;-95
2023/01/24 01:11:08;;;;;;;10.40;2.88;;;;;;;-146.73;100.00;56421.06;6186160;23;20011;-96
2023/01/24 01:13:35;;;;;;;8.75;3.10;;;;;;;-146.73;100.00;56421.06;6188068;23;20044;-95
2023/01/24 01:16:03;;;;;;;8.95;2.88;;;;;;;-146.73;100.00;56421.06;6187074;23;20008;-95
2023/01/24 01:18:30;;;;;;;11.48;3.60;;;;;;;-146.73;100.00;56421.06;6198202;23;20016;-95
2023/01/24 01:20:56;;;;;;;11.13;3.42;;;;;;;-146.73;100.00;56421.06;6215585;23;20083;-95
2023/01/24 01:23:25;;;;;;;9.48;3.25;;;;;;;-146.73;100.00;56421.06;6190156;23;20055;-94
2023/01/24 01:25:51;;;;;;;8.85;3.00;;;;;;;-146.73;100.00;56421.06;6190862;23;20438;-95
2023/01/24 01:28:17;;;;;;;10.88;3.10;;;;;;;-146.73;100.00;56421.06;6217100;23;20000;-95
2023/01/24 01:30:42;;;;;;;9.23;3.03;;;;;;;-146.73;100.00;56421.06;6217748;23;20307;-95
2023/01/24 01:33:08;;;;;;;8.65;3.00;;;;;;;-146.73;100.00;56421.06;6191906;23;20012;-95
2023/01/24 01:35:33;;;;;;;9.70;3.45;;;;;;;-146.73;100.00;56421.06;6190669;23;20047;-95
2023/01/24 01:37:59;;;;;;;11.80;3.28;;;;;;;-146.73;100.00;56421.06;6190438;23;20437;-95
2023/01/24 01:40:24;;;;;;;9.20;3.45;;;;;;;-146.73;100.00;56421.06;6217948;23;20039;-95
2023/01/24 01:42:53;;;;;;;10.05;3.28;;;;;;;-146.73;100.00;56421.06;6217337;23;20390;-95
2023/01/24 01:45:43;;;;;;;10.98;3.45;;;;;;;-146.73;100.00;56421.06;6191393;23;20016;-95
2023/01/24 01:48:35;;;;;;;9.30;3.28;;;;;;;-146.73;100.00;56421.06;6192473;23;20536;-96
2023/01/24 01:51:25;;;;;;;10.60;2.97;;;;;;;-146.73;100.00;56421.06;6191295;23;20039;-95
2023/01/24 01:54:28;;;;;;;9.90;2.95;;;;;;;-146.73;100.00;56421.06;6192962;23;20012;-94
2023/01/24 01:57:15;;;;;;;9.50;2.90;;;;;;;-146.73;100.00;56421.06;6097908;23;20022;-94
2023/01/24 01:59:50;;;;;;;10.65;3.53;;;;;;;-146.73;100.00;56421.06;6074583;23;20014;-95
2023/01/24 02:02:20;;;;;;;11.05;3.35;;;;;;;-146.73;100.00;56421.06;6073061;23;20020;-94
2023/01/24 02:04:57;;;;;;;11.65;3.17;;;;;;;-146.73;100.00;56421.06;6095879;23;20018;-94
2023/01/24 02:07:29;;;;;;;13.73;3.70;;;;;;;-146.73;100.00;56421.06;6072147;23;20050;-95
2023/01/24 02:09:57;;;;;;;14.10;4.55;;;;;;;-146.73;100.00;56421.06;6072638;23;20066;-94
2023/01/24 02:12:28;;;;;;;16.98;5.70;;;;;;;-146.73;100.00;56421.06;6071741;23;20452;-94
2023/01/24 02:17:55;;;;;;;18.67;6.80;;;;;;;-146.73;100.00;56421.06;6096146;23;20393;-95
2023/01/24 02:20:47;;;;;;;25.02;7.68;;;;;;;-146.73;100.00;56421.06;6042126;23;20519;-95
2023/01/24 02:23:17;;;;;;;31.90;8.43;;;;;;;-146.73;100.00;56421.06;6065860;23;20026;-95
2023/01/24 02:26:07;;;;;;;31.40;10.73;;;;;;;-146.73;100.00;56421.06;6042819;23;20021;-94
2023/01/24 02:28:35;;;;;;;32.45;10.25;;;;;;;-146.73;100.00;56421.06;6042223;23;20007;-94
2023/01/24 02:31:04;;;;;;;30.92;10.00;;;;;;;-146.73;100.00;56421.06;6040337;23;20460;-94
2023/01/24 02:33:31;;;;;;;22.63;7.95;;;;;;;-146.73;100.00;56421.06;6152621;23;20021;-95
2023/01/24 02:36:28;;;;;;;21.10;6.40;;;;;;;-146.73;100.00;56421.06;6184375;23;20060;-95
2023/01/24 02:39:10;;;;;;;13.65;4.43;;;;;;;-146.73;100.00;56421.06;6143324;23;20005;-95
2023/01/24 02:42:13;;;;;;;16.02;3.95;;;;;;;-146.73;100.00;56421.06;6160296;23;20025;-95
2023/01/24 02:44:48;;;;;;;13.45;4.75;;;;;;;-146.73;100.00;56421.06;6179254;23;20031;-95
2023/01/24 02:47:17;;;;;;;16.70;4.85;;;;;;;-146.73;100.00;56421.06;6159544;23;20009;-94
2023/01/24 02:49:43;;;;;;;12.63;4.30;;;;;;;-146.73;100.00;56421.06;6159748;23;20021;-95
2023/01/24 02:54:59;;;;;;;11.73;3.78;;;;;;;-146.73;100.00;56421.06;6185166;23;20407;-94
2023/01/24 03:06:15;;;;;;;10.57;3.28;;;;;;;-146.73;100.00;56421.06;6242213;22;20028;-94
2023/01/24 03:08:41;;;;;;;9.73;2.67;;;;;;;-146.73;100.00;56421.06;6216497;23;20023;-94
2023/01/24 03:11:08;;;;;;;8.23;2.42;;;;;;;-146.73;100.00;56421.06;6216518;23;20004;-95
2023/01/24 03:35:30;;;;;;;7.63;2.00;;;;;;;-146.73;100.00;56421.06;6244654;23;20040;-95
2023/01/24 03:40:42;;;;;;;8.35;2.13;;;;;;;-146.73;100.00;56421.06;6242764;23;20400;-93
2023/01/24 03:43:08;;;;;;;6.70;2.10;;;;;;;-146.73;100.00;56421.06;6216387;23;20058;-94
2023/01/24 03:45:37;;;;;;;8.10;2.28;;;;;;;-146.73;100.00;56421.06;6216130;23;20063;-93
2023/01/24 03:48:14;;;;;;;6.40;1.98;;;;;;;-146.73;100.00;56421.06;6215166;23;20453;-93
2023/01/24 03:53:28;;;;;;;6.57;1.80;;;;;;;-146.73;100.00;56421.06;6242581;23;20023;-93
2023/01/24 03:55:56;;;;;;;8.70;2.00;;;;;;;-146.73;100.00;56421.06;6216326;23;20417;-95
2023/01/24 03:58:23;;;;;;;5.90;1.70;;;;;;;-146.73;100.00;56421.06;6221101;23;20008;-94
2023/01/24 04:00:49;;;;;;;6.32;1.80;;;;;;;-146.73;100.00;56421.06;6215505;23;20032;-95
2023/01/24 04:03:14;;;;;;;5.47;1.88;;;;;;;-146.73;100.00;56421.06;6215371;23;20082;-95
2023/01/24 04:05:40;;;;;;;7.07;1.85;;;;;;;-146.73;100.00;56421.06;6216045;23;20023;-94
2023/01/24 04:08:08;;;;;;;7.35;1.60;;;;;;;-146.73;100.00;56421.06;6216657;23;20008;-94
2023/01/24 04:10:37;;;;;;;5.25;1.52;;;;;;;-146.73;100.00;56421.06;6216111;23;20004;-94
2023/01/24 04:13:03;;;;;;;7.65;1.90;;;;;;;-146.73;100.00;56421.06;6215791;23;20011;-93
2023/01/24 04:15:31;;;;;;;6.80;2.00;;;;;;;-146.73;100.00;56421.06;6216712;23;20008;-94
2023/01/24 04:17:59;;;;;;;6.03;1.60;;;;;;;-146.73;100.00;56421.06;6217196;23;20020;-95
2023/01/24 04:20:28;;;;;;;5.85;1.60;;;;;;;-146.73;100.00;56421.06;6243837;23;20026;-94
2023/01/24 04:22:59;;;;;;;5.60;1.60;;;;;;;-146.73;100.00;56421.06;6216518;23;20016;-94
2023/01/24 04:25:24;;;;;;;7.28;1.63;;;;;;;-146.73;100.00;56421.06;6241789;23;20004;-95
2023/01/24 04:27:51;;;;;;;9.15;2.03;;;;;;;-146.73;100.00;56421.06;6215826;23;20062;-95
2023/01/24 04:30:16;;;;;;;5.82;1.60;;;;;;;-146.73;100.00;56421.06;6216165;23;20007;-94
2023/01/24 04:32:42;;;;;;;5.47;1.50;;;;;;;-146.73;100.00;56421.06;6216294;23;20012;-94
2023/01/24 04:35:17;;;;;;;5.78;1.42;;;;;;;-146.73;100.00;56421.06;6215338;23;20027;-94
2023/01/24 04:37:43;;;;;;;5.80;1.70;;;;;;;-146.73;100.00;56421.06;6225692;23;20039;-94
2023/01/24 04:40:09;;;;;;;6.72;1.60;;;;;;;-146.73;100.00;56421.06;6222686;23;20008;-94
2023/01/24 04:42:37;;;;;;;6.68;1.70;;;;;;;-146.73;100.00;56421.06;6222626;23;20015;-94
2023/01/24 04:45:04;;;;;;;7.13;1.58;;;;;;;-146.73;100.00;56421.06;6221218;23;20007;-94
2023/01/24 04:47:30;;;;;;;5.32;1.50;;;;;;;-146.73;100.00;56421.06;6224008;23;20011;-95
2023/01/24 04:50:08;;;;;;;7.85;1.85;;;;;;;-146.73;100.00;56421.06;6223421;23;20012;-95
2023/01/24 04:52:34;;;;;;;6.88;1.63;;;;;;;-146.73;100.00;56421.06;6223684;23;20028;-95
2023/01/24 04:55:00;;;;;;;6.10;1.48;;;;;;;-146.73;100.00;56421.06;6223395;23;20019;-94
2023/01/24 04:57:28;;;;;;;6.20;2.05;;;;;;;-146.73;100.00;56421.06;6225219;23;20003;-94
2023/01/24 04:59:53;;;;;;;5.57;1.63;;;;;;;-146.73;100.00;56421.06;6225454;23;20000;-95
2023/01/24 05:02:19;;;;;;;7.07;1.90;;;;;;;-146.73;100.00;56421.06;6224663;23;20082;-96
2023/01/24 05:04:44;;;;;;;5.88;1.73;;;;;;;-146.73;100.00;56421.06;6218990;23;20029;-93
2023/01/24 05:07:10;;;;;;;6.60;1.58;;;;;;;-146.73;100.00;56421.06;6218999;23;20298;-94
2023/01/24 05:09:46;;;;;;;5.93;1.63;;;;;;;-146.73;100.00;56421.06;6220112;23;20010;-95
2023/01/24 05:12:12;;;;;;;6.80;2.00;;;;;;;-146.73;100.00;56421.06;6208120;23;20536;-95
2023/01/24 05:14:38;;;;;;;5.53;1.75;;;;;;;-146.73;100.00;56421.06;6215893;23;20001;-94
2023/01/24 05:17:03;;;;;;;6.82;2.08;;;;;;;-146.73;100.00;56421.06;6215532;23;20111;-93
2023/01/24 05:19:29;;;;;;;6.47;1.55;;;;;;;-146.73;100.00;56421.06;6217043;23;20438;-94
2023/01/24 05:21:55;;;;;;;7.78;1.80;;;;;;;-146.73;100.00;56421.06;6216147;23;20008;-94
2023/01/24 05:24:20;;;;;;;6.43;1.60;;;;;;;-146.73;100.00;56421.06;6217698;23;20021;-94
2023/01/24 05:26:46;;;;;;;5.88;1.77;;;;;;;-146.73;100.00;56421.06;6218872;23;20012;-94
2023/01/24 05:29:11;;;;;;;5.90;1.63;;;;;;;-146.73;100.00;56421.06;6219712;23;20247;-95
2023/01/24 05:31:40;;;;;;;5.80;1.65;;;;;;;-146.73;100.00;56421.06;6219926;23;20020;-94
2023/01/24 05:34:06;;;;;;;5.68;1.70;;;;;;;-146.73;100.00;56421.06;6216781;23;20043;-94
2023/01/24 05:36:32;;;;;;;5.90;1.73;;;;;;;-146.73;100.00;56421.06;6218973;23;20008;-96
2023/01/24 05:38:58;;;;;;;6.50;1.90;;;;;;;-146.73;100.00;56421.06;6220085;23;20008;-94
2023/01/24 05:41:26;;;;;;;7.38;1.65;;;;;;;-146.73;100.00;56421.06;6220350;23;20080;-95
2023/01/24 05:43:56;;;;;;;6.57;1.60;;;;;;;-146.73;100.00;56421.06;6221413;23;20064;-95
2023/01/24 05:46:28;;;;;;;5.53;1.50;;;;;;;-146.73;100.00;56421.06;6217637;23;20059;-93
2023/01/24 05:48:53;;;;;;;5.32;1.45;;;;;;;-146.73;100.00;56421.06;6217807;23;20040;-93
2023/01/24 05:51:19;;;;;;;5.00;1.30;;;;;;;-146.73;100.00;56421.06;6216425;23;20509;-94
2023/01/24 05:53:47;;;;;;;6.65;1.45;;;;;;;-146.73;100.00;56421.06;6217352;23;20068;-94
2023/01/24 05:56:18;;;;;;;5.78;1.58;;;;;;;-146.73;100.00;56421.06;6218312;23;20027;-94
2023/01/24 05:58:45;;;;;;;6.90;1.60;;;;;;;-146.73;100.00;56421.06;6219075;23;20000;-94
2023/01/24 06:01:16;;;;;;;6.35;1.70;;;;;;;-146.73;100.00;56421.06;6217921;23;20600;-95
2023/01/24 06:03:43;;;;;;;5.35;1.52;;;;;;;-146.73;100.00;56421.06;6217521;23;20012;-94
2023/01/24 06:06:11;;;;;;;6.80;1.67;;;;;;;-146.73;100.00;56421.06;6218898;23;20028;-95
2023/01/24 06:08:42;;;;;;;6.13;1.58;;;;;;;-146.73;100.00;56421.06;6218754;23;20000;-94
2023/01/24 06:11:27;;;;;;;6.10;1.63;;;;;;;-146.73;100.00;56421.06;6219086;23;20439;-94
2023/01/24 06:13:58;;;;;;;4.60;1.45;;;;;;;-146.73;100.00;56421.06;6219353;23;20028;-94
2023/01/24 06:16:31;;;;;;;5.65;1.50;;;;;;;-146.73;100.00;56421.06;6216905;23;20434;-94
2023/01/24 06:18:57;;;;;;;5.53;1.65;;;;;;;-146.73;100.00;56421.06;6217323;23;20717;-94
2023/01/24 06:21:51;;;;;;;7.15;1.92;;;;;;;-146.73;100.00;56421.06;6218570;23;20000;-94
2023/01/24 06:24:22;;;;;;;7.45;2.17;;;;;;;-146.73;100.00;56421.06;6217439;23;20008;-94
2023/01/24 06:26:49;;;;;;;6.55;1.80;;;;;;;-146.73;100.00;56421.06;6213294;23;20050;-94
2023/01/24 06:29:16;;;;;;;8.32;2.20;;;;;;;-146.73;100.00;56421.06;6216150;23;20469;-95
2023/01/24 06:32:08;;;;;;;6.85;2.15;;;;;;;-146.73;100.00;56421.06;6206199;23;20426;-94
2023/01/24 06:35:09;;;;;;;7.97;2.28;;;;;;;-146.73;100.00;56421.06;6210782;23;20016;-92
2023/01/24 06:37:47;;;;;;;8.30;2.42;;;;;;;-146.73;100.00;56421.06;6211997;23;20083;-94
2023/01/24 06:40:35;;;;;;;7.13;2.15;;;;;;;-146.73;100.00;56421.06;6212294;23;20501;-95
2023/01/24 06:43:01;;;;;;;6.75;2.00;;;;;;;-146.73;100.00;56421.06;6213937;23;20012;-94
2023/01/24 06:45:29;;;;;;;6.18;2.22;;;;;;;-146.73;100.00;56421.06;6211970;23;20104;-94
2023/01/24 06:47:57;;;;;;;6.78;2.00;;;;;;;-146.73;100.00;56421.06;6211912;23;20009;-94
2023/01/24 06:50:32;;;;;;;6.05;1.60;;;;;;;-146.73;100.00;56421.06;6212597;23;20005;-95
2023/01/24 06:52:57;;;;;;;5.35;1.60;;;;;;;-146.73;100.00;56421.06;6212652;23;20023;-94
2023/01/24 06:55:33;;;;;;;7.22;2.13;;;;;;;-146.73;100.00;56421.06;6212799;23;20016;-95
2023/01/24 06:58:02;;;;;;;5.55;1.70;;;;;;;-146.73;100.00;56421.06;6212839;23;20031;-95
2023/01/24 07:01:08;;;;;;;6.55;1.98;;;;;;;-146.73;100.00;56421.06;6212424;23;20016;-95
2023/01/24 07:03:33;;;;;;;7.05;2.25;;;;;;;-146.73;100.00;56421.06;6212274;23;20021;-94
2023/01/24 07:05:59;;;;;;;8.45;2.50;;;;;;;-146.73;100.00;56421.06;6212444;23;20023;-95
2023/01/24 07:08:26;;;;;;;8.52;2.30;;;;;;;-146.73;100.00;56421.06;6213066;23;20107;-95
2023/01/24 07:10:58;;;;;;;8.23;2.42;;;;;;;-146.73;100.00;56421.06;6213771;23;20011;-94
2023/01/24 07:13:23;;;;;;;6.82;2.10;;;;;;;-146.73;100.00;56421.06;6214237;23;20418;-95
2023/01/24 07:15:50;;;;;;;7.93;2.17;;;;;;;-146.73;100.00;56421.06;6213311;23;20032;-95
2023/01/24 07:18:17;;;;;;;10.35;2.22;;;;;;;-146.73;100.00;56421.06;6214284;23;20009;-95
2023/01/24 07:20:43;;;;;;;6.90;1.90;;;;;;;-146.73;100.00;56421.06;6212430;23;20009;-95
2023/01/24 07:23:32;;;;;;;7.15;1.70;;;;;;;-146.73;100.00;56421.06;6213372;23;20612;-94
2023/01/24 07:25:58;;;;;;;7.45;1.70;;;;;;;-146.73;100.00;56421.06;6212382;23;20099;-95
2023/01/24 07:28:28;;;;;;;8.05;2.45;;;;;;;-146.73;100.00;56421.06;6230535;23;20008;-95
2023/01/24 07:31:03;;;;;;;6.85;2.20;;;;;;;-146.73;100.00;56421.06;6234213;23;19993;-96
2023/01/24 07:34:08;;;;;;;7.40;1.88;;;;;;;-146.73;100.00;56421.06;6238389;23;20095;-96
2023/01/24 07:36:58;;;;;;;6.47;1.90;;;;;;;-146.73;100.00;56421.06;6230522;23;20732;-94
2023/01/24 07:39:58;;;;;;;6.22;1.70;;;;;;;-146.73;100.00;56421.06;6213059;23;20008;-95
2023/01/24 07:42:27;;;;;;;8.02;2.08;;;;;;;-146.73;100.00;56421.06;6192762;23;20024;-94
2023/01/24 07:45:09;;;;;;;6.63;2.00;;;;;;;-146.73;100.00;56421.06;6211025;23;20008;-94
2023/01/24 07:47:35;;;;;;;6.47;1.90;;;;;;;-146.73;100.00;56421.06;6212025;23;20008;-95
2023/01/24 07:50:15;;;;;;;5.05;1.40;;;;;;;-146.73;100.00;56421.06;6211915;23;20099;-94
2023/01/24 07:52:41;;;;;;;6.05;1.50;;;;;;;-146.73;100.00;56421.06;6210206;23;20043;-93
2023/01/24 07:55:35;;;;;;;5.82;1.60;;;;;;;-146.73;100.00;56421.06;6211384;23;20005;-95
2023/01/24 07:58:03;;;;;;;6.07;1.80;;;;;;;-146.73;100.00;56421.06;6210418;23;20028;-95
2023/01/24 08:00:30;;;;;;;5.07;1.42;;;;;;;-146.73;100.00;56421.06;6209278;23;20004;-94
2023/01/24 08:02:57;;;;;;;5.75;1.60;;;;;;;-146.73;100.00;56421.06;6209189;23;20009;-90
2023/01/24 08:05:50;;;;;;;6.00;1.50;;;;;;;-146.73;100.00;56421.06;6225689;23;20103;-94
2023/01/24 08:08:32;;;;;;;7.60;1.95;;;;;;;-146.73;100.00;56421.06;6206318;23;20015;-95
2023/01/24 08:10:57;;;;;;;10.40;2.20;;;;;;;-146.73;100.00;56421.06;6216049;23;20000;-95
2023/01/24 08:13:23;;;;;;;7.50;1.90;;;;;;;-146.73;100.00;56421.06;6214859;23;20118;-95
2023/01/24 08:15:48;;;;;;;9.32;2.17;;;;;;;-146.73;100.00;56421.06;6217066;23;20008;-95
2023/01/24 08:18:14;;;;;;;6.13;1.80;;;;;;;-146.73;100.00;56421.06;6214836;23;19996;-96
2023/01/24 08:20:40;;;;;;;7.15;1.90;;;;;;;-146.73;100.00;56421.06;6211788;23;20023;-94
2023/01/24 08:23:06;;;;;;;8.90;2.22;;;;;;;-146.73;100.00;56421.06;6216588;23;20020;-96
2023/01/24 08:25:33;;;;;;;56.95;6.68;;;;;;;-146.73;100.00;56421.06;6217427;23;20012;-94
2023/01/24 08:27:59;;;;;;;22.98;3.55;;;;;;;-146.73;100.00;56421.06;6217461;23;20099;-95
2023/01/24 08:30:25;;;;;;;19.58;3.30;;;;;;;-146.73;100.00;56421.06;6219108;23;20085;-96
2023/01/24 08:33:05;;;;;;;15.93;2.58;;;;;;;-146.73;100.00;56421.06;6218042;23;20070;-95
2023/01/24 08:35:33;;;;;;;13.52;2.78;;;;;;;-146.73;100.00;56421.06;6244413;23;20086;-93
2023/01/24 08:38:00;;;;;;;343.13;33.38;;;;;;;-146.73;100.00;56421.06;6219018;23;20004;-94
2023/01/24 08:40:26;;;;;;;239.32;25.33;;;;;;;-146.73;100.00;56421.06;6218190;23;20024;-95
2023/01/24 08:42:52;;;;;;;541.10;57.83;;;;;;;-146.73;100.00;56421.06;6214051;23;20054;-93
2023/01/24 08:45:18;;;;;;;292.95;32.35;;;;;;;-146.73;100.00;56421.06;6214068;23;20052;-93
2023/01/24 08:47:43;;;;;;;49.47;6.70;;;;;;;-146.73;100.00;56421.06;6212540;23;20019;-92
2023/01/24 08:50:10;;;;;;;220.05;20.95;;;;;;;-146.73;100.00;56421.06;6210662;23;20270;-92
2023/01/24 08:52:35;;;;;;;107.82;12.75;;;;;;;-146.73;100.00;56421.06;6209758;23;20072;-92
2023/01/24 08:55:01;;;;;;;53.13;6.55;;;;;;;-146.73;100.00;56421.06;6212133;23;20020;-93
2023/01/24 08:57:26;;;;;;;21.63;3.67;;;;;;;-146.73;100.00;56421.06;6210624;23;20433;-91
2023/01/24 08:59:56;;;;;;;19.98;4.15;;;;;;;-146.73;100.00;56421.06;6213247;23;20012;-93
2023/01/24 09:02:32;;;;;;;11.10;1.88;;;;;;;-146.73;100.00;56421.06;6214477;23;20007;-93
2023/01/24 09:05:00;;;;;;;8.35;1.40;;;;;;;-146.73;100.00;56421.06;6215382;23;20060;-92
2023/01/24 09:07:26;;;;;;;7.72;1.00;;;;;;;-146.73;100.00;56421.06;6213998;23;20094;-93
2023/01/24 09:09:51;;;;;;;3.42;0.75;;;;;;;-146.73;100.00;56421.06;6214986;23;20426;-92
2023/01/24 09:12:17;;;;;;;3.83;0.88;;;;;;;-146.73;100.00;56421.06;6214365;23;20008;-92
2023/01/24 09:14:42;;;;;;;6.38;1.20;;;;;;;-146.73;100.00;56421.06;6213638;23;20015;-93
2023/01/24 09:17:08;;;;;;;10.13;2.63;;;;;;;-146.73;100.00;56421.06;6214531;23;20007;-93
2023/01/24 09:19:33;;;;;;;13.10;3.45;;;;;;;-146.73;100.00;56421.06;6213725;23;20043;-93
2023/01/24 09:21:59;;;;;;;9.43;2.67;;;;;;;-146.73;100.00;56421.06;6212560;23;20022;-93
2023/01/24 09:24:25;;;;;;;7.35;1.70;;;;;;;-146.73;100.00;56421.06;6213627;23;20089;-92
2023/01/24 09:26:50;;;;;;;6.18;1.42;;;;;;;-146.73;100.00;56421.06;6212185;23;20354;-93
2023/01/24 09:29:16;;;;;;;5.25;1.48;;;;;;;-146.73;100.00;56421.06;6212903;23;20542;-93
2023/01/24 09:31:42;;;;;;;3.42;0.77;;;;;;;-146.73;100.00;56421.06;6212184;23;20066;-93
2023/01/24 09:34:07;;;;;;;4.72;1.17;;;;;;;-146.73;100.00;56421.06;6240124;23;20000;-93
2023/01/24 09:36:37;;;;;;;5.40;1.10;;;;;;;-146.73;100.00;56421.06;6213501;23;20102;-93
2023/01/24 09:39:02;;;;;;;3.85;0.73;;;;;;;-146.73;100.00;56421.06;6213631;23;20310;-93
2023/01/24 09:41:49;;;;;;;4.38;0.88;;;;;;;-146.73;100.00;56421.06;6215352;23;20024;-94
2023/01/24 09:44:26;;;;;;;4.13;0.90;;;;;;;-146.73;100.00;56421.06;6215994;23;20323;-94
2023/01/24 09:46:55;;;;;;;4.25;1.00;;;;;;;-146.73;100.00;56421.06;6216889;23;20333;-94
2023/01/24 09:49:36;;;;;;;3.72;1.00;;;;;;;-146.73;100.00;56421.06;6219936;23;20016;-93
2023/01/24 09:52:09;;;;;;;2.95;0.80;;;;;;;-146.73;100.00;56421.06;6214065;23;20035;-95
2023/01/24 09:54:55;;;;;;;3.63;0.85;;;;;;;-146.73;100.00;56421.06;6219304;23;20012;-94
2023/01/24 09:57:40;;;;;;;5.20;0.88;;;;;;;-146.73;100.00;56421.06;6215439;23;20130;-95
2023/01/24 10:00:24;;;;;;;4.65;1.00;;;;;;;-146.73;100.00;56421.06;6242216;23;20011;-93
2023/01/24 10:02:50;;;;;;;3.50;0.88;;;;;;;-146.73;100.00;56421.06;6215248;23;20011;-93
2023/01/24 10:05:18;;;;;;;6.60;1.20;;;;;;;-146.73;100.00;56421.06;6212055;23;20028;-93
2023/01/24 10:07:43;;;;;;;6.28;1.30;;;;;;;-146.73;100.00;56421.06;6237235;23;20010;-94
2023/01/24 10:10:12;;;;;;;5.03;1.30;;;;;;;-146.73;100.00;56421.06;6213399;23;20016;-95
2023/01/24 10:12:48;;;;;;;6.10;1.42;;;;;;;-146.73;100.00;56421.06;6214692;23;20020;-94
2023/01/24 10:15:30;;;;;;;4.97;1.40;;;;;;;-146.73;100.00;56421.06;6216215;23;20015;-95
2023/01/24 10:18:20;;;;;;;4.60;1.25;;;;;;;-146.73;100.00;56421.06;6216625;23;20007;-95
2023/01/24 10:21:13;;;;;;;4.93;1.30;;;;;;;-146.73;100.00;56421.06;6216646;23;20144;-96
2023/01/24 10:23:54;;;;;;;4.50;1.23;;;;;;;-146.73;100.00;56421.06;6202606;23;20020;-95
2023/01/24 10:26:47;;;;;;;7.43;1.40;;;;;;;-146.73;100.00;56421.06;6216883;23;20019;-94
2023/01/24 10:29:31;;;;;;;5.70;1.43;;;;;;;-146.73;100.00;56421.06;6218090;23;20099;-95
2023/01/24 10:32:11;;;;;;;7.53;1.45;;;;;;;-146.73;100.00;56421.06;6243862;23;20236;-94
2023/01/24 10:34:46;;;;;;;4.72;1.40;;;;;;;-146.73;100.00;56421.06;6216875;23;20032;-95
2023/01/24 10:37:22;;;;;;;5.93;1.77;;;;;;;-146.73;100.00;56421.06;6216850;23;20063;-94
2023/01/24 10:39:48;;;;;;;5.82;1.90;;;;;;;-146.73;100.00;56421.06;6216919;23;20602;-93
2023/01/24 10:42:27;;;;;;;6.13;1.90;;;;;;;-146.73;100.00;56421.06;6245117;23;20142;-94
2023/01/24 10:44:59;;;;;;;5.88;1.73;;;;;;;-146.73;100.00;56421.06;6218223;23;20022;-93
2023/01/24 10:47:49;;;;;;;5.35;1.50;;;;;;;-146.73;100.00;56421.06;6215545;23;20019;-94
2023/01/24 10:50:18;;;;;;;4.65;1.33;;;;;;;-146.73;100.00;56421.06;6217757;23;20027;-94
2023/01/24 10:52:48;;;;;;;4.47;1.25;;;;;;;-146.73;100.00;56421.06;6218243;23;20012;-95
2023/01/24 10:55:34;;;;;;;5.15;1.50;;;;;;;-146.73;100.00;56421.06;6216370;23;20020;-95
2023/01/24 10:58:03;;;;;;;5.65;1.63;;;;;;;-146.73;100.00;56421.06;6213019;23;20131;-95
2023/01/24 11:00:41;;;;;;;8.60;2.70;;;;;;;-146.73;100.00;56421.06;6212376;23;20008;-94
2023/01/24 11:03:23;;;;;;;6.00;1.80;;;;;;;-146.73;100.00;56421.06;6209938;23;20020;-95
2023/01/24 11:05:51;;;;;;;6.68;1.90;;;;;;;-146.73;100.00;56421.06;6212616;23;20031;-94
2023/01/24 11:08:25;;;;;;;6.85;2.33;;;;;;;-146.73;100.00;56421.06;6240016;23;20008;-94
2023/01/24 11:10:56;;;;;;;15.52;4.78;;;;;;;-146.73;100.00;56421.06;6213369;23;20016;-94
2023/01/24 11:13:33;;;;;;;12.10;4.13;;;;;;;-146.73;100.00;56421.06;6212724;23;20004;-94
2023/01/24 11:16:03;;;;;;;7.60;2.50;;;;;;;-146.73;100.00;56421.06;6212437;23;20000;-94
2023/01/24 11:18:31;;;;;;;9.77;2.50;;;;;;;-146.73;100.00;56421.06;6211068;23;20020;-94
2023/01/24 11:21:08;;;;;;;7.32;1.60;;;;;;;-146.73;100.00;56421.06;6213140;23;20095;-95
2023/01/24 11:23:34;;;;;;;5.03;1.40;;;;;;;-146.73;100.00;56421.06;6213040;23;20022;-94
2023/01/24 11:26:01;;;;;;;5.53;1.40;;;;;;;-146.73;100.00;56421.06;6213279;23;20422;-94
2023/01/24 11:28:30;;;;;;;3.67;1.10;;;;;;;-146.73;100.00;56421.06;6214081;23;20012;-94
2023/01/24 11:31:00;;;;;;;3.95;1.17;;;;;;;-146.73;100.00;56421.06;6213844;23;20024;-94
2023/01/24 11:33:58;;;;;;;3.50;1.10;;;;;;;-146.73;100.00;56421.06;6213826;23;20007;-94
2023/01/24 11:36:50;;;;;;;4.18;1.20;;;;;;;-146.73;100.00;56421.06;6240585;23;20012;-95
2023/01/24 11:39:39;;;;;;;3.78;1.00;;;;;;;-146.73;100.00;56421.06;6213385;23;20011;-94
2023/01/24 11:42:26;;;;;;;4.70;1.30;;;;;;;-146.73;100.00;56421.06;6138566;23;20089;-95
2023/01/24 11:45:39;;;;;;;4.07;1.08;;;;;;;-146.73;100.00;56421.06;6240966;23;20038;-94
2023/01/24 11:48:25;;;;;;;4.20;1.13;;;;;;;-146.73;100.00;56421.06;6233037;23;20008;-95
2023/01/24 11:51:13;;;;;;;3.97;1.05;;;;;;;-146.73;100.00;56421.06;6213853;23;20007;-94
2023/01/24 11:53:47;;;;;;;3.45;1.00;;;;;;;-146.73;100.00;56421.06;6213739;23;20015;-94
2023/01/24 11:56:53;;;;;;;4.85;1.30;;;;;;;-146.73;100.00;56421.06;6214315;23;20346;-94
2023/01/24 11:59:48;;;;;;;5.47;1.23;;;;;;;-146.73;100.00;56421.06;6213660;23;20020;-95
2023/01/24 12:02:28;;;;;;;3.97;1.08;;;;;;;-146.73;100.00;56421.06;6212671;23;20547;-94
2023/01/24 12:05:19;;;;;;;6.05;1.20;;;;;;;-146.73;100.00;56421.06;6214227;23;20031;-94
2023/01/24 12:08:12;;;;;;;4.40;1.30;;;;;;;-146.73;100.00;56421.06;6240813;23;20000;-95
2023/01/24 12:11:04;;;;;;;3.33;1.00;;;;;;;-146.73;100.00;56421.06;6213013;23;20020;-95
2023/01/24 12:13:49;;;;;;;3.30;0.90;;;;;;;-146.73;100.00;56421.06;6214468;23;20233;-95